Aguaray, Argentina
Current Conditions -  °F | °C
As of 7:00 PM on Saturday 20 Dec 2014 (Local Time) from SLYA Reporting Station
Broken Clouds Broken Clouds  
Wind Chill: 31°   Ceiling: 7000
Heat Index: 35°   Visibility: 6mi
Dew Point: 23°   Wind: 12mph
Humidity: 62%   Direction: 50°NE
Pressure: 29.41"   Gusts: NA
Location:  22.27°S, 63.73°W
Report Text: SLYA 202200Z 05010KT 9999 BKN070 31/23 Q0996
Loading
Personal Weather Stations






























Interactive Weather Map New forecast layout! Learn more

10-Day Weather Forecast

Advertisements
Track Severe Weather on mobile